createdAt,value
2019-03-11T00:07:25.567Z,14.6
2019-03-11T00:17:24.786Z,14.6
2019-03-11T00:27:23.995Z,14.6
2019-03-11T00:37:23.259Z,14.7
2019-03-11T00:47:22.423Z,14.7
2019-03-11T00:57:21.638Z,14.8
2019-03-11T01:07:20.854Z,14.8
2019-03-11T01:17:20.065Z,14.8
2019-03-11T01:27:19.283Z,14.8
2019-03-11T01:37:18.494Z,14.9
2019-03-11T01:47:18.853Z,14.9
2019-03-11T01:57:18.073Z,14.9
2019-03-11T02:07:17.336Z,14.9
2019-03-11T02:17:16.493Z,14.9
2019-03-11T02:27:15.704Z,14.9
2019-03-11T02:37:14.922Z,14.9
2019-03-11T02:47:14.132Z,15
2019-03-11T02:57:13.345Z,15
2019-03-11T03:07:12.562Z,15
2019-03-11T03:17:11.782Z,15.1
2019-03-11T03:27:10.983Z,15.1
2019-03-11T03:37:10.246Z,15.1
2019-03-11T03:47:09.434Z,15.1
2019-03-11T03:57:08.626Z,14.6
2019-03-11T04:07:07.847Z,14.6
2019-03-11T04:17:07.047Z,14.7
2019-03-11T04:27:06.261Z,14.7
2019-03-11T04:37:05.473Z,14.7
2019-03-11T04:47:04.699Z,14.8
2019-03-11T04:57:03.899Z,14.4
2019-03-11T05:07:03.115Z,14.4
2019-03-11T05:17:02.327Z,14.4
2019-03-11T05:27:01.543Z,14.3
2019-03-11T05:37:00.754Z,14.3
2019-03-11T05:46:59.971Z,14.3
2019-03-11T05:56:59.236Z,14.3
2019-03-11T06:06:58.400Z,14.3
2019-03-11T06:16:57.613Z,14.4
2019-03-11T06:26:56.835Z,14.5
2019-03-11T06:36:56.040Z,14.6
2019-03-11T06:46:55.253Z,14.9
2019-03-11T06:56:54.466Z,15.3
2019-03-11T07:06:53.680Z,15.6
2019-03-11T07:16:52.894Z,16
2019-03-11T07:26:52.109Z,16.5
2019-03-11T07:36:51.322Z,17.1
2019-03-11T07:46:50.536Z,17.6
2019-03-11T07:56:49.753Z,18.2
2019-03-11T08:06:48.973Z,18.6
2019-03-11T08:16:48.182Z,19.1
2019-03-11T08:26:47.399Z,19.6
2019-03-11T08:36:46.617Z,20
2019-03-11T08:46:45.823Z,20.4
2019-03-11T08:56:45.044Z,20.8
2019-03-11T09:06:44.254Z,21.1
2019-03-11T09:16:43.469Z,21.4
2019-03-11T09:26:42.683Z,21.9
2019-03-11T09:36:41.897Z,22.6
2019-03-11T09:46:41.110Z,23.3
2019-03-11T09:56:43.415Z,24
2019-03-11T10:06:39.542Z,24.5
2019-03-11T10:16:38.745Z,24.8
2019-03-11T10:26:37.956Z,25.1
2019-03-11T10:36:37.173Z,25.3
2019-03-11T10:46:36.383Z,25.5
2019-03-11T10:56:35.599Z,25.5
2019-03-11T11:06:34.815Z,25.7
2019-03-11T11:16:34.027Z,25.8
2019-03-11T11:26:33.243Z,25.9
2019-03-11T11:36:32.457Z,26.1
2019-03-11T11:46:31.671Z,26.4
2019-03-11T11:56:30.888Z,26.7
2019-03-11T12:06:30.100Z,27.1
2019-03-11T12:16:29.315Z,27.4
2019-03-11T12:26:28.533Z,27.9
2019-03-11T12:36:27.741Z,28.6
2019-03-11T12:46:26.961Z,29.1
2019-03-11T12:56:26.168Z,29.6
2019-03-11T13:06:25.380Z,30.1
2019-03-11T13:16:24.593Z,30.5
2019-03-11T13:26:23.812Z,30.8
2019-03-11T13:36:23.018Z,31.1
2019-03-11T13:46:22.281Z,31.3
2019-03-11T13:56:21.446Z,31.6
2019-03-11T14:06:20.657Z,31.8
2019-03-11T14:16:19.868Z,32.1
2019-03-11T14:26:19.129Z,32.2
2019-03-11T14:36:18.297Z,32.3
2019-03-11T14:46:17.520Z,32.4
2019-03-11T14:56:16.714Z,32.5
2019-03-11T15:06:15.925Z,32.6
2019-03-11T15:16:17.416Z,32.6
2019-03-11T15:26:24.377Z,32.6
2019-03-11T15:36:13.561Z,32.6
2019-03-11T15:46:12.781Z,32.5
2019-03-11T15:56:11.985Z,32.5
2019-03-11T16:06:11.198Z,32.4
2019-03-11T16:16:10.409Z,32.3
2019-03-11T16:26:09.629Z,32.1
2019-03-11T16:36:08.894Z,31.9
2019-03-11T16:46:08.053Z,31.8
2019-03-11T16:56:07.269Z,31.4
2019-03-11T17:06:06.480Z,31.1
2019-03-11T17:16:05.696Z,30.9
2019-03-11T17:26:04.910Z,30.4
2019-03-11T17:36:04.131Z,29.5
2019-03-11T17:46:03.394Z,28.7
2019-03-11T17:56:02.555Z,28.2
2019-03-11T18:06:10.997Z,28.2
2019-03-11T18:16:00.985Z,27.8
2019-03-11T18:26:00.201Z,27.7
2019-03-11T18:35:59.418Z,27.7
2019-03-11T18:45:58.640Z,27.5
2019-03-11T18:55:57.855Z,27.4
2019-03-11T19:05:57.083Z,27.3
2019-03-11T19:15:56.299Z,27.3
2019-03-11T19:25:55.546Z,26.6
2019-03-11T19:35:54.747Z,26.8
2019-03-11T19:45:53.997Z,26.3
2019-03-11T19:55:53.245Z,26.3
2019-03-11T20:05:53.951Z,26.1
2019-03-11T20:15:53.913Z,26.1
2019-03-11T20:25:50.871Z,25.8
2019-03-11T20:35:50.068Z,25.6
2019-03-11T20:45:49.304Z,25.7
2019-03-11T20:55:48.550Z,25.6
2019-03-11T21:07:23.642Z,25.6
2019-03-11T21:17:26.120Z,25.6
2019-03-11T21:27:22.078Z,25.6
2019-03-11T21:37:21.310Z,25.6
2019-03-11T21:47:20.540Z,25.6
2019-03-11T21:57:19.802Z,25.6
2019-03-11T22:07:18.935Z,25.5
2019-03-11T22:17:18.233Z,25.5
2019-03-11T22:27:17.534Z,25.4
2019-03-11T22:37:16.830Z,25.4
2019-03-11T22:47:16.124Z,25.4
2019-03-11T22:57:15.418Z,25.4
2019-03-11T23:07:14.674Z,25.4
2019-03-11T23:17:13.888Z,25.4
2019-03-11T23:27:13.102Z,25.4
2019-03-11T23:37:12.316Z,25.3
2019-03-11T23:47:11.529Z,25.3
2019-03-11T23:57:10.743Z,25.3
